createdAt,value
2018-02-08T00:01:25.441Z,125.63
2018-02-08T00:03:52.959Z,119.13
2018-02-08T00:06:20.483Z,124.63
2018-02-08T00:08:48.044Z,127.00
2018-02-08T00:11:15.574Z,123.53
2018-02-08T00:13:43.097Z,119.77
2018-02-08T00:16:10.628Z,117.03
2018-02-08T00:18:38.149Z,120.03
2018-02-08T00:21:05.675Z,114.67
2018-02-08T00:23:33.201Z,111.47
2018-02-08T00:26:00.730Z,116.50
2018-02-08T00:28:28.257Z,125.43
2018-02-08T00:30:55.801Z,110.63
2018-02-08T00:33:23.334Z,114.93
2018-02-08T00:35:50.860Z,121.13
2018-02-08T00:38:18.395Z,124.00
2018-02-08T00:40:45.939Z,117.17
2018-02-08T00:43:13.471Z,112.67
2018-02-08T00:45:41.001Z,126.13
2018-02-08T00:48:08.524Z,124.03
2018-02-08T00:50:36.048Z,108.73
2018-02-08T00:53:03.578Z,122.33
2018-02-08T00:55:31.100Z,115.13
2018-02-08T00:57:58.623Z,119.43
2018-02-08T01:00:26.152Z,127.00
2018-02-08T01:02:53.676Z,112.47
2018-02-08T01:05:21.200Z,113.13
2018-02-08T01:07:48.732Z,120.27
2018-02-08T01:10:16.262Z,126.43
2018-02-08T01:12:43.805Z,116.23
2018-02-08T01:15:11.336Z,120.30
2018-02-08T01:17:38.864Z,124.37
2018-02-08T01:20:06.388Z,123.77
2018-02-08T01:22:33.935Z,118.23
2018-02-08T01:25:01.473Z,115.30
2018-02-08T01:27:28.992Z,117.67
2018-02-08T01:29:56.516Z,119.00
2018-02-08T01:32:24.052Z,120.40
2018-02-08T01:34:51.581Z,116.27
2018-02-08T01:37:19.107Z,118.70
2018-02-08T01:39:46.626Z,127.73
2018-02-08T01:42:14.159Z,124.13
2018-02-08T01:44:41.693Z,125.20
2018-02-08T01:47:09.227Z,120.83
2018-02-08T01:49:45.603Z,126.57
2018-02-08T01:52:13.128Z,121.10
2018-02-08T01:54:40.661Z,120.93
2018-02-08T01:57:08.185Z,117.03
2018-02-08T01:59:35.706Z,126.27
2018-02-08T02:02:03.237Z,121.97
2018-02-08T02:04:30.752Z,130.20
2018-02-08T02:06:58.317Z,128.83
2018-02-08T02:09:25.843Z,123.23
2018-02-08T02:11:53.375Z,121.07
2018-02-08T02:14:20.936Z,119.60
2018-02-08T02:16:48.451Z,137.57
2018-02-08T02:19:15.984Z,121.10
2018-02-08T02:21:43.509Z,116.97
2018-02-08T02:24:11.028Z,118.37
2018-02-08T02:26:38.540Z,116.50
2018-02-08T02:29:06.085Z,118.33
2018-02-08T02:31:33.599Z,121.20
2018-02-08T02:34:01.132Z,113.13
2018-02-08T02:36:28.660Z,120.00
2018-02-08T02:38:56.184Z,122.77
2018-02-08T02:41:23.712Z,124.97
2018-02-08T02:43:51.236Z,123.47
2018-02-08T02:46:18.759Z,116.87
2018-02-08T02:48:46.296Z,127.53
2018-02-08T02:51:13.816Z,116.67
2018-02-08T02:53:41.337Z,107.13
2018-02-08T02:56:08.865Z,115.10
2018-02-08T02:58:36.383Z,114.50
2018-02-08T03:01:03.916Z,105.20
2018-02-08T03:03:31.432Z,114.30
2018-02-08T03:05:58.960Z,116.40
2018-02-08T03:08:26.488Z,109.63
2018-02-08T03:10:54.009Z,113.47
2018-02-08T03:13:21.546Z,108.03
2018-02-08T03:15:49.060Z,120.73
2018-02-08T03:18:16.596Z,115.67
2018-02-08T03:20:44.128Z,115.87
2018-02-08T03:23:11.647Z,109.13
2018-02-08T03:25:39.165Z,116.37
2018-02-08T03:28:06.700Z,116.10
2018-02-08T03:30:35.655Z,111.57
2018-02-08T03:33:03.186Z,103.00
2018-02-08T03:35:30.708Z,111.23
2018-02-08T03:37:58.233Z,104.00
2018-02-08T03:40:25.756Z,109.30
2018-02-08T03:42:53.289Z,104.93
2018-02-08T03:45:20.810Z,107.10
2018-02-08T03:47:48.328Z,99.13
2018-02-08T03:50:15.865Z,112.67
2018-02-08T03:52:43.387Z,103.37
2018-02-08T03:55:10.908Z,113.13
2018-02-08T03:57:38.441Z,105.50
2018-02-08T04:00:05.965Z,104.93
2018-02-08T04:02:33.501Z,112.73
2018-02-08T04:05:01.021Z,103.53
2018-02-08T04:07:28.538Z,102.50
2018-02-08T04:09:56.065Z,105.93
2018-02-08T04:12:23.599Z,108.87
2018-02-08T04:14:51.113Z,106.67
2018-02-08T04:17:18.642Z,97.93
2018-02-08T04:19:46.175Z,105.40
2018-02-08T04:22:13.699Z,102.37
2018-02-08T04:24:41.229Z,106.47
2018-02-08T04:27:08.753Z,108.27
2018-02-08T04:29:36.278Z,103.80
2018-02-08T04:32:03.821Z,108.10
2018-02-08T04:34:30.630Z,103.50
2018-02-08T04:36:58.169Z,111.80
2018-02-08T04:39:37.605Z,101.90
2018-02-08T04:42:16.996Z,107.53
2018-02-08T04:44:56.432Z,106.83
2018-02-08T04:47:32.646Z,107.47
2018-02-08T04:50:00.176Z,104.63
2018-02-08T04:52:27.703Z,103.73
2018-02-08T04:54:55.220Z,96.57
2018-02-08T04:57:22.745Z,117.87
2018-02-08T04:59:50.286Z,98.37
2018-02-08T05:02:19.700Z,106.53
2018-02-08T05:04:47.222Z,110.63
2018-02-08T05:07:14.763Z,109.03
2018-02-08T05:09:42.284Z,109.27
2018-02-08T05:12:09.810Z,99.67
2018-02-08T05:14:37.340Z,104.43
2018-02-08T05:17:04.852Z,102.70
2018-02-08T05:19:32.376Z,100.77
2018-02-08T05:21:59.923Z,101.17
2018-02-08T05:24:27.468Z,97.67
2018-02-08T05:26:55.022Z,103.07
2018-02-08T05:29:22.546Z,107.00
2018-02-08T05:31:50.059Z,110.60
2018-02-08T05:34:17.596Z,109.30
2018-02-08T05:36:45.119Z,98.13
2018-02-08T05:39:12.650Z,101.50
2018-02-08T05:41:40.342Z,102.00
2018-02-08T05:44:07.860Z,100.77
2018-02-08T05:46:35.389Z,106.63
2018-02-08T05:49:02.919Z,104.17
2018-02-08T05:51:30.447Z,111.27
2018-02-08T05:53:57.987Z,96.57
2018-02-08T05:56:25.510Z,110.37
2018-02-08T05:58:53.038Z,104.87
2018-02-08T06:01:20.565Z,107.23
2018-02-08T06:03:48.084Z,108.70
2018-02-08T06:06:15.601Z,109.43
2018-02-08T06:08:43.128Z,103.10
2018-02-08T06:11:10.669Z,115.80
2018-02-08T06:13:38.187Z,101.43
2018-02-08T06:16:05.716Z,103.70
2018-02-08T06:18:33.236Z,108.60
2018-02-08T06:21:00.764Z,102.93
2018-02-08T06:23:28.300Z,104.27
2018-02-08T06:25:55.815Z,103.50
2018-02-08T06:28:23.371Z,103.80
2018-02-08T06:30:50.905Z,106.90
2018-02-08T06:33:18.428Z,115.60
2018-02-08T06:35:45.954Z,111.37
2018-02-08T06:38:13.483Z,106.00
2018-02-08T06:40:41.001Z,110.20
2018-02-08T06:43:08.525Z,108.40
2018-02-08T06:45:36.054Z,114.17
2018-02-08T06:48:03.584Z,110.13
2018-02-08T06:50:31.103Z,104.20
2018-02-08T06:52:58.630Z,111.10
2018-02-08T06:55:26.153Z,111.80
2018-02-08T06:57:53.713Z,113.07
2018-02-08T07:00:21.241Z,106.13
2018-02-08T07:02:48.773Z,109.47
2018-02-08T07:05:16.295Z,113.63
2018-02-08T07:07:43.816Z,107.97
2018-02-08T07:10:11.344Z,114.60
2018-02-08T07:12:38.873Z,111.00
2018-02-08T07:15:06.393Z,118.87
2018-02-08T07:17:33.924Z,116.43
2018-02-08T07:20:11.962Z,113.53
2018-02-08T07:22:39.493Z,115.90
2018-02-08T07:25:07.015Z,110.73
2018-02-08T07:27:34.548Z,111.80
2018-02-08T07:30:02.110Z,112.27
2018-02-08T07:32:29.660Z,106.93
2018-02-08T07:34:57.232Z,108.20
2018-02-08T07:37:24.760Z,116.37
2018-02-08T07:39:52.290Z,104.30
2018-02-08T07:42:19.826Z,119.07
2018-02-08T07:44:47.386Z,98.13
2018-02-08T07:47:15.100Z,115.07
2018-02-08T07:49:42.622Z,106.40
2018-02-08T07:52:10.152Z,107.13
2018-02-08T07:54:37.684Z,101.20
2018-02-08T07:57:05.221Z,104.70
2018-02-08T07:59:32.756Z,107.23
2018-02-08T08:02:00.286Z,111.83
2018-02-08T08:04:27.807Z,118.13
2018-02-08T08:06:55.327Z,109.27
2018-02-08T08:09:22.877Z,106.70
2018-02-08T08:11:50.412Z,104.57
2018-02-08T08:14:17.948Z,98.47
2018-02-08T08:16:45.481Z,105.33
2018-02-08T08:19:13.011Z,102.33
2018-02-08T08:21:40.527Z,95.53
2018-02-08T08:24:08.072Z,100.73
2018-02-08T08:26:35.591Z,96.80
2018-02-08T08:29:03.104Z,91.80
2018-02-08T08:31:30.625Z,97.83
2018-02-08T08:33:58.136Z,84.77
2018-02-08T08:36:25.664Z,84.33
2018-02-08T08:38:53.194Z,91.27
2018-02-08T08:41:20.711Z,84.53
2018-02-08T08:43:48.235Z,85.80
2018-02-08T08:46:15.748Z,80.17
2018-02-08T08:48:43.277Z,85.77
2018-02-08T08:51:10.793Z,86.07
2018-02-08T08:53:38.309Z,86.67
2018-02-08T08:56:05.841Z,78.77
2018-02-08T08:58:33.352Z,77.70
2018-02-08T09:01:00.868Z,75.70
2018-02-08T09:03:28.373Z,75.77
2018-02-08T09:05:55.885Z,81.47
2018-02-08T09:08:23.393Z,73.33
2018-02-08T09:10:50.903Z,82.43
2018-02-08T09:13:18.437Z,86.27
2018-02-08T09:15:45.950Z,75.97
2018-02-08T09:18:13.488Z,83.13
2018-02-08T09:20:41.032Z,86.60
2018-02-08T09:23:08.561Z,84.10
2018-02-08T09:25:36.092Z,82.87
2018-02-08T09:28:03.620Z,90.50
2018-02-08T09:30:31.138Z,75.20
2018-02-08T09:32:58.672Z,86.40
2018-02-08T09:35:26.192Z,87.33
2018-02-08T09:37:53.740Z,88.27
2018-02-08T09:40:21.264Z,90.77
2018-02-08T09:42:48.779Z,90.17
2018-02-08T09:45:16.289Z,83.57
2018-02-08T09:47:43.812Z,80.40
2018-02-08T09:50:11.434Z,81.50
2018-02-08T09:52:38.982Z,87.47
2018-02-08T09:55:06.509Z,84.50
2018-02-08T09:57:34.024Z,77.67
2018-02-08T10:00:01.556Z,76.37
2018-02-08T10:02:29.076Z,69.20
2018-02-08T10:04:56.595Z,71.70
2018-02-08T10:07:24.116Z,78.00
2018-02-08T10:09:51.665Z,68.20
2018-02-08T10:12:19.184Z,64.97
2018-02-08T10:14:46.741Z,58.50
2018-02-08T10:17:14.257Z,58.53
2018-02-08T10:19:41.812Z,60.93
2018-02-08T10:22:09.397Z,58.23
2018-02-08T10:24:36.900Z,52.23
2018-02-08T10:27:04.428Z,55.67
2018-02-08T10:29:31.950Z,52.70
2018-02-08T10:31:59.459Z,51.27
2018-02-08T10:34:26.982Z,47.97
2018-02-08T10:36:54.507Z,43.73
2018-02-08T10:39:22.028Z,46.20
2018-02-08T10:41:49.544Z,48.10
2018-02-08T10:44:17.066Z,44.67
2018-02-08T10:46:44.591Z,52.50
2018-02-08T10:49:12.137Z,50.33
2018-02-08T10:51:39.663Z,52.37
2018-02-08T10:54:07.189Z,47.23
2018-02-08T10:56:34.700Z,42.60
2018-02-08T10:59:02.214Z,50.40
2018-02-08T11:01:29.735Z,49.90
2018-02-08T11:03:57.260Z,53.13
2018-02-08T11:06:24.787Z,43.77
2018-02-08T11:08:52.321Z,41.67
2018-02-08T11:11:19.860Z,39.93
2018-02-08T11:13:47.389Z,41.93
2018-02-08T11:16:14.916Z,39.80
2018-02-08T11:18:42.470Z,49.53
2018-02-08T11:21:09.989Z,43.33
2018-02-08T11:23:37.497Z,45.10
2018-02-08T11:26:05.011Z,37.70
2018-02-08T11:28:32.527Z,41.10
2018-02-08T11:31:00.039Z,43.03
2018-02-08T11:33:27.567Z,39.73
2018-02-08T11:35:55.189Z,44.23
2018-02-08T11:38:22.692Z,47.77
2018-02-08T11:40:50.233Z,46.17
2018-02-08T11:43:17.769Z,42.87
2018-02-08T11:45:45.284Z,42.93
2018-02-08T11:48:12.795Z,49.60
2018-02-08T11:50:40.329Z,47.57
2018-02-08T11:53:07.873Z,45.77
2018-02-08T11:55:35.407Z,47.10
2018-02-08T11:58:02.929Z,46.23
2018-02-08T12:00:31.271Z,46.67
2018-02-08T12:02:58.786Z,53.33
2018-02-08T12:05:26.315Z,45.77
2018-02-08T12:07:53.832Z,45.43
2018-02-08T12:10:21.346Z,54.80
2018-02-08T12:12:48.862Z,46.20
2018-02-08T12:15:16.403Z,51.07
2018-02-08T12:17:43.916Z,51.77
2018-02-08T12:20:11.437Z,55.53
2018-02-08T12:22:38.956Z,49.97
2018-02-08T12:25:06.484Z,49.30
2018-02-08T12:27:33.996Z,50.80
2018-02-08T12:30:01.516Z,48.60
2018-02-08T12:32:29.149Z,47.27
2018-02-08T12:34:56.669Z,47.80
2018-02-08T12:37:24.185Z,47.50
2018-02-08T12:39:51.828Z,46.93
2018-02-08T12:42:19.343Z,47.20
2018-02-08T12:44:46.863Z,52.07
2018-02-08T12:47:14.404Z,48.90
2018-02-08T12:49:41.923Z,54.03
2018-02-08T12:52:09.442Z,46.43
2018-02-08T12:54:36.965Z,43.97
2018-02-08T12:57:04.485Z,54.87
2018-02-08T12:59:32.030Z,48.07
2018-02-08T13:01:59.544Z,49.40
2018-02-08T13:04:27.118Z,47.00
2018-02-08T13:06:54.633Z,46.00
2018-02-08T13:09:22.155Z,44.67
2018-02-08T13:11:49.668Z,47.67
2018-02-08T13:14:17.181Z,49.30
2018-02-08T13:16:44.701Z,55.50
2018-02-08T13:19:12.226Z,52.67
2018-02-08T13:21:39.760Z,46.03
2018-02-08T13:24:07.280Z,48.57
2018-02-08T13:26:34.806Z,50.23
2018-02-08T13:29:02.336Z,46.17
2018-02-08T13:31:30.288Z,49.37
2018-02-08T13:33:57.791Z,42.57
2018-02-08T13:36:30.849Z,52.20
2018-02-08T13:38:58.357Z,47.00
2018-02-08T13:41:25.867Z,48.33
2018-02-08T13:43:53.383Z,44.30
2018-02-08T13:46:20.901Z,50.20
2018-02-08T13:48:50.924Z,44.83
2018-02-08T13:51:24.008Z,47.43
2018-02-08T13:56:59.358Z,46.73
2018-02-08T14:02:41.637Z,50.57
2018-02-08T14:05:09.204Z,44.33
2018-02-08T14:07:36.734Z,41.53
2018-02-08T14:10:04.275Z,44.70
2018-02-08T14:12:31.822Z,48.90
2018-02-08T14:14:59.982Z,49.73
2018-02-08T15:36:24.531Z,47.83
2018-02-08T15:38:52.142Z,44.97
2018-02-08T15:41:19.714Z,47.70
2018-02-08T15:43:48.150Z,46.73
2018-02-08T15:46:15.743Z,47.20
2018-02-08T15:48:43.307Z,44.60
2018-02-08T15:51:10.899Z,45.23
2018-02-08T15:53:40.448Z,45.27
2018-02-08T15:56:09.066Z,49.97
2018-02-08T15:58:37.496Z,43.67
2018-02-08T16:01:05.072Z,44.63
2018-02-08T16:03:32.662Z,47.07
2018-02-08T16:06:00.588Z,44.30
2018-02-08T16:08:28.178Z,45.57
2018-02-08T16:10:56.403Z,46.17
2018-02-08T16:13:24.545Z,47.97
2018-02-08T16:15:52.115Z,46.27
2018-02-08T16:18:19.688Z,51.97
2018-02-08T16:20:48.053Z,49.03
2018-02-08T16:23:15.627Z,47.93
2018-02-08T16:25:43.901Z,45.90
2018-02-08T16:28:11.474Z,42.93
2018-02-08T16:30:39.044Z,51.63
2018-02-08T16:33:06.650Z,49.60
2018-02-08T16:35:34.241Z,47.07
2018-02-08T16:38:01.812Z,47.20
2018-02-08T16:40:29.395Z,48.37
2018-02-08T16:42:58.689Z,47.30
2018-02-08T16:45:26.274Z,48.20
2018-02-08T16:47:53.933Z,56.07
2018-02-08T16:50:21.514Z,58.57
2018-02-08T16:52:49.074Z,50.70
2018-02-08T16:55:16.643Z,48.80
2018-02-08T16:57:44.310Z,52.67
2018-02-08T17:00:11.930Z,52.20
2018-02-08T17:02:41.732Z,52.07
2018-02-08T17:05:10.052Z,53.20
2018-02-08T17:07:37.644Z,53.27
2018-02-08T17:10:05.741Z,53.40
2018-02-08T17:12:34.104Z,50.00
2018-02-08T17:15:01.823Z,51.87
2018-02-08T17:17:29.449Z,51.07
2018-02-08T17:19:57.025Z,53.30
2018-02-08T17:22:24.918Z,53.97
2018-02-08T17:24:53.120Z,49.93
2018-02-08T17:27:20.744Z,52.70
2018-02-08T17:29:48.324Z,48.77
2018-02-08T17:32:17.673Z,50.83
2018-02-08T17:34:45.295Z,53.17
2018-02-08T17:37:12.896Z,52.10
2018-02-08T17:39:46.890Z,52.70
2018-02-08T17:42:27.472Z,50.50
2018-02-08T17:44:59.162Z,54.50
2018-02-08T17:47:29.338Z,51.07
2018-02-08T17:49:58.156Z,51.50
2018-02-08T17:52:25.775Z,53.70
2018-02-08T17:54:54.988Z,48.33
2018-02-08T17:57:23.785Z,49.73
2018-02-08T17:59:55.118Z,53.03
2018-02-08T18:02:23.571Z,48.53
2018-02-08T18:04:54.194Z,49.20
2018-02-08T18:07:21.803Z,48.13
2018-02-08T18:09:49.545Z,53.47
2018-02-08T18:12:19.979Z,53.47
2018-02-08T18:14:49.435Z,58.27
2018-02-08T18:17:17.031Z,51.53
2018-02-08T18:19:45.333Z,52.37
2018-02-08T18:22:14.178Z,55.57
2018-02-08T18:24:42.562Z,49.47
2018-02-08T18:27:12.219Z,50.73
2018-02-08T18:29:39.958Z,53.87
2018-02-08T19:45:04.670Z,62.27
2018-02-08T19:47:33.558Z,54.43
2018-02-08T19:50:01.366Z,58.97
2018-02-08T19:52:28.970Z,59.07
2018-02-08T19:54:59.116Z,61.57
2018-02-08T19:57:27.683Z,59.53
2018-02-08T19:59:56.475Z,58.00
2018-02-08T20:02:25.550Z,55.70
2018-02-08T20:04:55.452Z,58.70
2018-02-08T20:07:24.577Z,53.07
2018-02-08T20:09:56.783Z,53.50
2018-02-08T20:12:33.330Z,55.03
2018-02-08T20:28:27.526Z,69.53
2018-02-08T20:31:01.626Z,68.97
2018-02-08T20:33:29.961Z,76.37
2018-02-08T20:35:57.863Z,68.40
2018-02-08T20:38:40.058Z,67.87
2018-02-08T20:41:14.075Z,67.57
2018-02-08T20:43:42.906Z,72.43
2018-02-08T20:46:10.445Z,64.90
2018-02-08T20:53:56.546Z,71.10
2018-02-08T20:56:33.581Z,79.00
2018-02-08T20:59:02.009Z,74.43
2018-02-08T21:01:29.580Z,73.07
2018-02-08T21:03:58.569Z,70.87
2018-02-08T21:06:28.989Z,77.47
2018-02-08T21:08:58.278Z,77.00
2018-02-08T21:11:29.726Z,77.63
2018-02-08T21:13:57.285Z,86.13
2018-02-08T21:16:24.841Z,74.23
2018-02-08T21:18:52.474Z,78.63
2018-02-08T21:21:20.038Z,71.60
2018-02-08T21:23:47.570Z,75.17
2018-02-08T21:26:15.097Z,73.47
2018-02-08T21:28:42.723Z,75.83
2018-02-08T21:31:10.270Z,78.60
2018-02-08T21:33:37.810Z,74.17
2018-02-08T21:36:05.346Z,74.97
2018-02-08T21:38:32.896Z,81.20
2018-02-08T21:41:00.434Z,73.57
2018-02-08T21:43:27.966Z,77.77
2018-02-08T21:45:58.272Z,81.00
2018-02-08T21:48:25.833Z,79.17
2018-02-08T21:50:53.983Z,81.37
2018-02-08T21:53:21.528Z,83.57
2018-02-08T21:55:49.080Z,77.17
2018-02-08T21:58:16.600Z,78.00
2018-02-08T22:00:44.118Z,76.90
2018-02-08T22:03:11.633Z,84.40
2018-02-08T22:05:39.181Z,76.90
2018-02-08T22:08:06.752Z,76.97
2018-02-08T22:10:34.329Z,78.63
2018-02-08T22:13:01.851Z,83.07
2018-02-08T22:15:29.375Z,83.40
2018-02-08T22:17:57.019Z,91.70
2018-02-08T22:20:24.715Z,86.40
2018-02-08T22:22:52.235Z,85.27
2018-02-08T22:25:19.760Z,82.93
2018-02-08T22:27:47.291Z,85.63
2018-02-08T22:30:14.814Z,78.90
2018-02-08T22:32:42.453Z,81.23
2018-02-08T22:35:10.044Z,84.90
2018-02-08T22:37:37.585Z,78.67
2018-02-08T22:40:05.116Z,86.30
2018-02-08T22:42:34.216Z,80.20
2018-02-08T22:45:03.181Z,84.53
2018-02-08T22:47:31.441Z,81.07
2018-02-08T22:50:01.021Z,83.00
2018-02-08T22:52:29.259Z,77.97
2018-02-08T22:54:59.965Z,79.77
2018-02-08T22:57:28.781Z,85.20
2018-02-08T22:59:57.022Z,77.73
2018-02-08T23:02:27.290Z,80.53
2018-02-08T23:04:56.935Z,82.17
2018-02-08T23:07:25.753Z,77.57
2018-02-08T23:09:54.034Z,83.27
2018-02-08T23:12:22.863Z,76.87
2018-02-08T23:14:52.409Z,76.30
2018-02-08T23:17:21.078Z,72.17
2018-02-08T23:19:53.455Z,78.00
2018-02-08T23:22:21.863Z,80.43
2018-02-08T23:24:50.972Z,80.90
2018-02-08T23:27:18.479Z,78.27
2018-02-08T23:29:46.002Z,78.03
2018-02-08T23:32:13.541Z,74.97
2018-02-08T23:34:41.689Z,81.10
2018-02-08T23:37:10.817Z,81.93
2018-02-08T23:39:39.172Z,81.47
2018-02-08T23:42:07.996Z,73.40
2018-02-08T23:44:37.208Z,89.57
2018-02-08T23:47:06.398Z,80.40
2018-02-08T23:49:34.796Z,84.17
2018-02-08T23:52:05.236Z,78.57
2018-02-08T23:54:33.928Z,73.57
2018-02-08T23:57:04.677Z,76.77
2018-02-08T23:59:34.736Z,77.87
